createdAt,value
2019-05-13T00:01:34.317Z,7.89
2019-05-13T00:04:00.539Z,7.82
2019-05-13T00:06:27.627Z,7.88
2019-05-13T00:08:54.433Z,7.89
2019-05-13T00:11:23.865Z,7.80
2019-05-13T00:13:50.708Z,7.90
2019-05-13T00:16:17.613Z,7.87
2019-05-13T00:18:44.575Z,7.86
2019-05-13T00:21:13.871Z,7.90
2019-05-13T00:23:40.635Z,7.88
2019-05-13T00:26:07.562Z,7.87
2019-05-13T00:28:34.938Z,7.94
2019-05-13T00:31:03.403Z,7.94
2019-05-13T00:33:30.980Z,7.84
2019-05-13T00:35:58.149Z,7.84
2019-05-13T00:38:25.384Z,7.89
2019-05-13T00:40:53.910Z,7.89
2019-05-13T00:43:21.365Z,7.88
2019-05-13T00:45:49.369Z,7.86
2019-05-13T00:48:16.644Z,7.90
2019-05-13T00:50:44.251Z,7.87
2019-05-13T00:53:13.220Z,7.90
2019-05-13T00:55:39.842Z,7.89
2019-05-13T00:58:06.622Z,7.87
2019-05-13T01:00:34.195Z,7.87
2019-05-13T01:03:01.188Z,7.88
2019-05-13T01:05:29.671Z,7.74
2019-05-13T01:07:56.772Z,7.79
2019-05-13T01:10:24.000Z,7.86
2019-05-13T01:12:50.835Z,7.92
2019-05-13T01:15:17.851Z,7.91
2019-05-13T01:17:45.039Z,7.89
2019-05-13T01:20:14.176Z,7.88
2019-05-13T01:22:40.955Z,7.77
2019-05-13T01:25:07.898Z,7.84
2019-05-13T01:27:34.951Z,7.76
2019-05-13T01:30:03.965Z,7.68
2019-05-13T01:32:30.583Z,7.74
2019-05-13T01:34:57.456Z,7.78
2019-05-13T01:37:37.994Z,7.67
2019-05-13T01:39:54.038Z,7.74
2019-05-13T01:42:21.539Z,7.74
2019-05-13T01:44:48.372Z,7.72
2019-05-13T01:47:16.179Z,7.71
2019-05-13T01:49:43.939Z,7.70
2019-05-13T01:52:13.543Z,7.72
2019-05-13T01:54:39.619Z,7.69
2019-05-13T01:57:06.902Z,7.69
2019-05-13T01:59:35.689Z,7.64
2019-05-13T02:02:03.969Z,7.61
2019-05-13T02:04:30.774Z,7.65
2019-05-13T02:06:57.880Z,7.63
2019-05-13T02:09:25.107Z,7.62
2019-05-13T02:11:53.829Z,7.58
2019-05-13T02:14:20.610Z,7.58
2019-05-13T02:16:48.173Z,7.58
2019-05-13T02:19:15.145Z,7.53
2019-05-13T02:21:43.920Z,7.51
2019-05-13T02:24:10.945Z,7.48
2019-05-13T02:26:37.930Z,7.47
2019-05-13T02:29:04.575Z,7.40
2019-05-13T02:31:41.373Z,7.44
2019-05-13T02:34:02.446Z,7.39
2019-05-13T02:36:28.992Z,7.33
2019-05-13T02:38:55.730Z,7.23
2019-05-13T02:41:23.008Z,7.15
2019-05-13T02:43:52.596Z,7.08
2019-05-13T02:46:18.719Z,7.17
2019-05-13T02:48:45.673Z,7.08
2019-05-13T02:51:12.636Z,7.05
2019-05-13T02:53:43.438Z,7.02
2019-05-13T02:56:11.610Z,6.95
2019-05-13T02:58:37.668Z,6.84
2019-05-13T03:01:04.897Z,6.90
2019-05-13T03:03:32.756Z,6.99
2019-05-13T03:06:02.949Z,6.93
2019-05-13T03:08:41.082Z,6.99
2019-05-13T03:10:58.171Z,7.01
2019-05-13T03:13:26.042Z,6.91
2019-05-13T03:16:13.183Z,6.90
2019-05-13T03:18:43.195Z,6.85
2019-05-13T03:21:08.205Z,6.88
2019-05-13T03:23:35.167Z,6.88
2019-05-13T03:26:03.182Z,6.76
2019-05-13T03:28:33.103Z,6.85
2019-05-13T03:30:58.580Z,6.81
2019-05-13T03:33:28.243Z,6.76
2019-05-13T03:35:55.979Z,6.75
2019-05-13T03:38:22.615Z,6.73
2019-05-13T03:40:52.634Z,6.65
2019-05-13T03:43:22.839Z,6.66
2019-05-13T03:45:52.604Z,6.78
2019-05-13T03:48:23.335Z,6.80
2019-05-13T03:50:48.703Z,6.88
2019-05-13T03:53:15.713Z,6.96
2019-05-13T03:55:43.656Z,7.09
2019-05-13T03:58:13.103Z,7.25
2019-05-13T04:00:42.613Z,7.33
2019-05-13T04:03:08.809Z,7.43
2019-05-13T04:05:35.520Z,7.47
2019-05-13T04:08:03.160Z,7.52
2019-05-13T04:10:33.139Z,7.53
2019-05-13T04:12:58.721Z,7.59
2019-05-13T04:15:25.873Z,7.53
2019-05-13T04:17:53.636Z,7.63
2019-05-13T04:20:23.020Z,7.71
2019-05-13T04:22:52.991Z,7.72
2019-05-13T04:25:22.837Z,7.68
2019-05-13T04:27:48.343Z,7.69
2019-05-13T04:30:15.349Z,7.74
2019-05-13T04:32:44.149Z,7.66
2019-05-13T04:35:12.349Z,7.74
2019-05-13T04:37:43.002Z,7.81
2019-05-13T04:40:08.228Z,7.76
2019-05-13T04:42:36.154Z,7.79
2019-05-13T04:45:03.551Z,7.90
2019-05-13T04:47:33.219Z,7.97
2019-05-13T04:50:02.651Z,8.04
2019-05-13T04:52:28.735Z,8.25
2019-05-13T04:54:55.730Z,8.34
2019-05-13T04:57:22.873Z,8.41
2019-05-13T04:59:51.690Z,8.43
2019-05-13T05:02:43.291Z,8.49
2019-05-13T05:05:24.486Z,8.73
2019-05-13T05:08:11.972Z,8.94
2019-05-13T05:10:57.722Z,9.25
2019-05-13T05:13:47.192Z,10.68
2019-05-13T05:16:32.802Z,11.92
2019-05-13T05:19:23.780Z,11.74
2019-05-13T05:21:57.681Z,12.24
2019-05-13T05:24:33.667Z,12.55
2019-05-13T05:27:12.089Z,12.29
2019-05-13T05:29:58.178Z,11.87
2019-05-13T05:32:39.053Z,11.23
2019-05-13T05:35:32.382Z,10.92
2019-05-13T05:38:14.813Z,10.61
2019-05-13T05:40:43.223Z,10.18
2019-05-13T05:43:11.665Z,10.19
2019-05-13T05:45:38.678Z,10.03
2019-05-13T05:48:05.961Z,9.76
2019-05-13T05:50:34.094Z,9.88
2019-05-13T05:53:02.708Z,9.93
2019-05-13T05:55:31.796Z,9.84
2019-05-13T05:58:01.591Z,9.87
2019-05-13T06:00:32.260Z,9.92
2019-05-13T06:03:02.314Z,9.78
2019-05-13T06:05:29.286Z,10.04
2019-05-13T06:07:56.911Z,10.05
2019-05-13T06:10:24.328Z,10.10
2019-05-13T06:12:53.130Z,10.15
2019-05-13T06:15:22.532Z,9.99
2019-05-13T06:17:51.791Z,10.18
2019-05-13T06:20:21.128Z,10.00
2019-05-13T06:22:48.745Z,10.24
2019-05-13T06:25:16.446Z,10.46
2019-05-13T06:27:43.998Z,10.64
2019-05-13T06:30:12.606Z,10.91
2019-05-13T06:32:41.889Z,10.78
2019-05-13T06:35:11.467Z,10.94
2019-05-13T06:37:41.440Z,10.68
2019-05-13T06:40:12.406Z,10.86
2019-05-13T06:42:41.737Z,10.71
2019-05-13T06:45:09.455Z,10.70
2019-05-13T06:47:37.132Z,10.56
2019-05-13T06:50:04.859Z,10.52
2019-05-13T06:52:32.581Z,10.65
2019-05-13T06:55:02.532Z,10.57
2019-05-13T06:57:28.937Z,10.58
2019-05-13T06:59:56.349Z,10.55
2019-05-13T07:02:23.562Z,10.45
2019-05-13T07:04:51.749Z,10.54
2019-05-13T07:07:21.678Z,10.62
2019-05-13T07:09:51.702Z,10.81
2019-05-13T07:12:18.767Z,11.07
2019-05-13T07:14:46.120Z,11.24
2019-05-13T07:17:13.562Z,11.58
2019-05-13T07:19:41.638Z,11.83
2019-05-13T07:22:11.474Z,11.74
2019-05-13T07:24:38.470Z,12.02
2019-05-13T07:27:06.104Z,12.04
2019-05-13T07:29:33.651Z,11.99
2019-05-13T07:32:02.085Z,11.97
2019-05-13T07:34:33.430Z,11.67
2019-05-13T07:37:01.938Z,11.48
2019-05-13T07:39:32.398Z,11.22
2019-05-13T07:42:02.723Z,11.31
2019-05-13T07:44:28.538Z,11.49
2019-05-13T07:46:55.852Z,11.43
2019-05-13T07:49:23.091Z,11.46
2019-05-13T07:51:52.030Z,11.74
2019-05-13T07:54:22.090Z,11.85
2019-05-13T07:56:52.270Z,12.01
2019-05-13T07:59:21.069Z,12.10
2019-05-13T08:01:48.587Z,12.39
2019-05-13T08:04:22.479Z,12.00
2019-05-13T08:06:45.591Z,12.22
2019-05-13T08:09:12.989Z,12.06
2019-05-13T08:11:55.568Z,12.18
2019-05-13T08:14:12.220Z,12.12
2019-05-13T08:16:39.335Z,12.16
2019-05-13T08:24:43.993Z,11.98
2019-05-13T08:27:11.857Z,12.18
2019-05-13T08:29:42.100Z,12.29
2019-05-13T08:32:11.267Z,12.34
2019-05-13T08:34:41.731Z,12.38
2019-05-13T08:37:11.390Z,12.28
2019-05-13T08:39:41.279Z,12.12
2019-05-13T08:42:15.956Z,12.40
2019-05-13T08:44:37.582Z,12.41
2019-05-13T08:47:05.219Z,12.27
2019-05-13T08:49:32.864Z,12.40
2019-05-13T08:52:01.583Z,12.63
2019-05-13T08:54:32.935Z,12.51
2019-05-13T08:57:02.489Z,12.67
2019-05-13T08:59:31.788Z,12.87
2019-05-13T09:01:59.265Z,12.93
2019-05-13T09:04:26.966Z,12.95
2019-05-13T09:06:54.582Z,12.82
2019-05-13T09:09:22.199Z,13.06
2019-05-13T09:11:51.601Z,13.57
2019-05-13T09:14:21.745Z,14.05
2019-05-13T09:16:48.230Z,13.92
2019-05-13T09:19:16.473Z,13.47
2019-05-13T09:21:44.676Z,12.96
2019-05-13T09:24:25.338Z,13.36
2019-05-13T09:26:42.333Z,13.74
2019-05-13T09:29:11.908Z,13.47
2019-05-13T09:31:41.579Z,13.45
2019-05-13T09:34:11.905Z,13.49
2019-05-13T09:36:38.657Z,13.19
2019-05-13T09:39:07.315Z,13.44
2019-05-13T09:41:40.912Z,13.36
2019-05-13T09:44:04.138Z,13.09
2019-05-13T09:46:31.960Z,13.57
2019-05-13T09:49:14.867Z,13.74
2019-05-13T09:51:28.083Z,13.68
2019-05-13T09:53:55.857Z,13.67
2019-05-13T09:56:23.202Z,13.39
2019-05-13T09:58:52.547Z,13.34
2019-05-13T10:01:22.359Z,13.06
2019-05-13T10:03:54.829Z,13.26
2019-05-13T10:06:18.346Z,13.45
2019-05-13T10:08:46.087Z,13.54
2019-05-13T10:11:13.978Z,13.27
2019-05-13T10:13:41.828Z,13.65
2019-05-13T10:16:09.001Z,13.58
2019-05-13T10:18:36.378Z,13.83
2019-05-13T10:21:03.808Z,13.93
2019-05-13T10:23:32.974Z,13.68
2019-05-13T10:26:03.769Z,13.94
2019-05-13T10:28:33.014Z,14.24
2019-05-13T10:31:00.252Z,14.15
2019-05-13T10:33:31.554Z,13.99
2019-05-13T10:35:59.189Z,14.07
2019-05-13T10:38:27.866Z,14.24
2019-05-13T10:40:56.293Z,14.35
2019-05-13T10:43:31.007Z,14.40
2019-05-13T10:45:52.959Z,14.33
2019-05-13T10:48:21.998Z,14.34
2019-05-13T10:50:52.040Z,14.33
2019-05-13T10:53:19.069Z,14.70
2019-05-13T10:55:46.550Z,15.05
2019-05-13T10:58:13.926Z,14.68
2019-05-13T11:00:46.108Z,15.61
2019-05-13T11:03:13.712Z,15.66
2019-05-13T11:05:44.468Z,16.00
2019-05-13T11:08:09.918Z,15.88
2019-05-13T11:10:37.162Z,15.33
2019-05-13T11:13:06.080Z,15.32
2019-05-13T11:15:40.676Z,15.89
2019-05-13T11:18:03.715Z,15.69
2019-05-13T11:20:32.405Z,15.32
2019-05-13T11:23:01.918Z,15.19
2019-05-13T11:25:28.867Z,14.73
2019-05-13T11:27:58.494Z,15.10
2019-05-13T11:30:26.327Z,14.97
2019-05-13T11:32:54.368Z,15.63
2019-05-13T11:35:22.959Z,15.46
2019-05-13T11:37:52.174Z,15.08
2019-05-13T11:40:21.824Z,15.27
2019-05-13T11:42:48.073Z,15.20
2019-05-13T11:45:15.158Z,14.79
2019-05-13T11:47:42.056Z,14.76
2019-05-13T11:50:11.368Z,14.81
2019-05-13T11:52:37.646Z,17.07
2019-05-13T11:55:04.779Z,18.85
2019-05-13T11:57:31.716Z,19.16
2019-05-13T11:59:58.519Z,19.18
2019-05-13T12:02:25.922Z,18.29
2019-05-13T12:04:53.743Z,18.07
2019-05-13T12:07:23.169Z,17.52
2019-05-13T12:09:51.807Z,16.18
2019-05-13T12:12:18.759Z,15.45
2019-05-13T12:15:17.751Z,15.17
2019-05-13T12:17:14.432Z,14.48
2019-05-13T12:19:42.697Z,14.41
2019-05-13T12:22:12.944Z,15.01
2019-05-13T12:24:38.032Z,15.13
2019-05-13T12:27:05.339Z,15.24
2019-05-13T12:29:32.454Z,15.07
2019-05-13T12:32:02.965Z,14.89
2019-05-13T12:34:28.605Z,14.31
2019-05-13T12:36:56.050Z,14.23
2019-05-13T12:41:53.915Z,18.59
2019-05-13T12:44:22.813Z,19.14
2019-05-13T12:46:54.084Z,17.86
2019-05-13T12:49:22.072Z,16.77
2019-05-13T12:51:51.736Z,16.41
2019-05-13T12:54:19.573Z,15.90
2019-05-13T12:56:46.920Z,15.74
2019-05-13T12:59:15.428Z,15.70
2019-05-13T13:01:43.209Z,15.28
2019-05-13T13:04:12.359Z,15.06
2019-05-13T13:06:41.679Z,14.69
2019-05-13T13:09:07.336Z,14.55
2019-05-13T13:11:33.949Z,14.62
2019-05-13T13:14:05.421Z,14.89
2019-05-13T13:16:34.222Z,15.22
2019-05-13T13:18:58.351Z,15.22
2019-05-13T13:23:55.243Z,14.62
2019-05-13T13:26:22.066Z,14.58
2019-05-13T13:28:49.098Z,14.36
2019-05-13T13:31:16.045Z,14.36
2019-05-13T13:33:44.599Z,14.40
2019-05-13T13:36:15.453Z,13.86
2019-05-13T13:38:43.830Z,13.97
2019-05-13T13:41:08.973Z,13.85
2019-05-13T13:43:37.524Z,14.11
2019-05-13T13:46:11.698Z,14.00
2019-05-13T13:48:33.392Z,14.13
2019-05-13T13:51:04.005Z,13.94
2019-05-13T13:53:29.152Z,13.77
2019-05-13T13:55:56.338Z,13.89
2019-05-13T13:58:25.387Z,13.71
2019-05-13T14:01:05.012Z,14.00
2019-05-13T14:03:20.887Z,14.18
2019-05-13T14:05:47.792Z,13.97
2019-05-13T14:07:13.219Z,15.01
2019-05-13T14:07:13.373Z,15.21
2019-05-13T14:08:14.705Z,14.05
2019-05-13T14:10:42.057Z,14.10
2019-05-13T14:13:09.385Z,14.00
2019-05-13T14:15:36.232Z,14.05
2019-05-13T14:18:03.348Z,13.93
2019-05-13T14:20:32.573Z,13.87
2019-05-13T14:22:58.875Z,13.92
2019-05-13T14:25:26.144Z,13.91
2019-05-13T14:27:53.279Z,13.88
2019-05-13T14:30:21.458Z,13.76
2019-05-13T14:32:51.700Z,13.81
2019-05-13T14:35:17.599Z,13.71
2019-05-13T14:37:45.285Z,13.64
2019-05-13T14:40:13.241Z,13.67
2019-05-13T14:42:42.466Z,13.48
2019-05-13T14:45:08.890Z,13.45
2019-05-13T14:47:35.671Z,13.16
2019-05-13T14:50:03.202Z,13.37
2019-05-13T14:52:32.231Z,13.39
2019-05-13T14:54:58.409Z,13.28
2019-05-13T14:57:25.012Z,13.20
2019-05-13T14:59:51.701Z,13.21
2019-05-13T15:02:18.312Z,13.23
2019-05-13T15:04:45.268Z,13.03
2019-05-13T15:07:12.421Z,13.11
2019-05-13T15:09:39.095Z,13.16
2019-05-13T15:12:05.725Z,12.91
2019-05-13T15:14:32.721Z,12.93
2019-05-13T15:17:04.086Z,12.87
2019-05-13T15:19:31.563Z,13.09
2019-05-13T15:21:57.858Z,12.89
2019-05-13T15:24:26.056Z,12.91
2019-05-13T15:26:52.845Z,12.93
2019-05-13T15:29:22.110Z,13.00
2019-05-13T15:31:48.169Z,12.96
2019-05-13T15:34:15.523Z,13.15
2019-05-13T15:36:42.324Z,13.15
2019-05-13T15:39:09.577Z,13.01
2019-05-13T15:41:37.755Z,13.06
2019-05-13T15:44:05.278Z,12.96
2019-05-13T15:46:32.385Z,12.91
2019-05-13T15:49:01.086Z,12.90
2019-05-13T15:51:27.941Z,13.03
2019-05-13T15:53:57.236Z,12.90
2019-05-13T15:56:23.436Z,12.95
2019-05-13T15:58:53.048Z,12.84
2019-05-13T16:01:19.169Z,12.83
2019-05-13T16:03:46.182Z,12.75
2019-05-13T16:06:13.128Z,12.62
2019-05-13T16:08:43.126Z,12.61
2019-05-13T16:11:08.452Z,12.45
2019-05-13T16:13:35.432Z,12.52
2019-05-13T16:16:02.620Z,12.36
2019-05-13T16:18:31.457Z,12.37
2019-05-13T16:20:57.929Z,12.47
2019-05-13T16:23:25.230Z,12.37
2019-05-13T16:25:52.169Z,12.38
2019-05-13T16:28:19.021Z,12.32
2019-05-13T16:30:45.879Z,12.27
2019-05-13T16:33:12.955Z,12.31
2019-05-13T16:35:42.254Z,12.33
2019-05-13T16:38:08.596Z,12.37
2019-05-13T16:40:36.832Z,12.47
2019-05-13T16:43:05.852Z,12.55
2019-05-13T16:45:32.759Z,12.63
2019-05-13T16:48:03.829Z,12.74
2019-05-13T16:50:28.252Z,12.64
2019-05-13T16:52:55.276Z,12.37
2019-05-13T16:55:22.143Z,12.43
2019-05-13T16:57:51.184Z,12.39
2019-05-13T17:00:17.633Z,12.32
2019-05-13T17:02:44.477Z,12.39
2019-05-13T17:05:12.253Z,12.38
2019-05-13T17:07:42.106Z,12.44
2019-05-13T17:10:12.313Z,12.14
2019-05-13T17:12:38.677Z,12.28
2019-05-13T17:15:05.976Z,12.20
2019-05-13T17:17:34.027Z,12.23
2019-05-13T17:20:02.481Z,12.34
2019-05-13T17:22:31.674Z,12.18
2019-05-13T17:24:58.627Z,12.15
2019-05-13T17:27:25.622Z,12.04
2019-05-13T17:29:52.938Z,12.06
2019-05-13T17:32:22.189Z,11.82
2019-05-13T17:34:51.425Z,11.83
2019-05-13T17:37:18.283Z,11.97
2019-05-13T17:39:45.256Z,11.80
2019-05-13T17:42:12.448Z,11.78
2019-05-13T17:44:39.433Z,11.73
2019-05-13T17:47:06.303Z,11.75
2019-05-13T17:49:33.348Z,11.68
2019-05-13T17:52:02.144Z,11.65
2019-05-13T17:54:28.977Z,11.60
2019-05-13T17:56:55.695Z,11.56
2019-05-13T17:59:22.541Z,11.43
2019-05-13T18:01:51.540Z,11.35
2019-05-13T18:04:18.150Z,11.21
2019-05-13T18:06:45.110Z,11.18
2019-05-13T18:09:12.269Z,11.25
2019-05-13T18:11:41.558Z,11.26
2019-05-13T18:14:08.155Z,11.22
2019-05-13T18:16:35.153Z,11.05
2019-05-13T18:19:01.995Z,11.11
2019-05-13T18:21:28.815Z,11.16
2019-05-13T18:23:55.716Z,11.07
2019-05-13T18:26:22.788Z,11.13
2019-05-13T18:28:51.472Z,11.16
2019-05-13T18:31:18.567Z,11.11
2019-05-13T18:33:45.432Z,11.04
2019-05-13T18:36:12.386Z,10.98
2019-05-13T18:38:41.705Z,10.98
2019-05-13T18:41:08.292Z,11.07
2019-05-13T18:43:35.340Z,11.14
2019-05-13T18:46:02.398Z,11.10
2019-05-13T18:48:29.156Z,11.11
2019-05-13T18:50:56.269Z,11.08
2019-05-13T18:53:23.419Z,11.11
2019-05-13T18:55:52.214Z,11.10
2019-05-13T18:58:18.701Z,11.10
2019-05-13T19:00:46.027Z,10.97
2019-05-13T19:03:12.771Z,11.02
2019-05-13T19:05:42.060Z,10.88
2019-05-13T19:08:09.421Z,10.86
2019-05-13T19:10:37.487Z,10.86
2019-05-13T19:13:04.571Z,10.89
2019-05-13T19:15:31.961Z,10.89
2019-05-13T19:17:59.150Z,10.92
2019-05-13T19:20:27.649Z,10.83
2019-05-13T19:22:54.752Z,10.82
2019-05-13T19:25:21.772Z,10.69
2019-05-13T19:27:51.570Z,10.86
2019-05-13T19:30:18.016Z,10.90
2019-05-13T19:32:44.905Z,10.90
2019-05-13T19:35:12.017Z,10.85
2019-05-13T19:37:38.962Z,10.80
2019-05-13T19:40:05.850Z,10.82
2019-05-13T19:42:34.331Z,10.80
2019-05-13T19:45:01.908Z,10.80
2019-05-13T19:47:29.415Z,10.76
2019-05-13T19:49:56.783Z,10.72
2019-05-13T19:52:23.854Z,10.71
2019-05-13T19:54:51.412Z,10.72
2019-05-13T19:57:18.363Z,10.69
2019-05-13T19:59:45.411Z,10.66
2019-05-13T20:02:12.518Z,10.61
2019-05-13T20:04:41.319Z,10.59
2019-05-13T20:07:11.609Z,10.63
2019-05-13T20:09:38.018Z,10.56
2019-05-13T20:12:05.089Z,10.55
2019-05-13T20:14:32.119Z,10.42
2019-05-13T20:17:01.460Z,10.27
2019-05-13T20:19:27.893Z,10.29
2019-05-13T20:21:55.197Z,10.24
2019-05-13T20:24:22.141Z,10.23
2019-05-13T20:26:52.174Z,10.39
2019-05-13T20:29:18.890Z,10.38
2019-05-13T20:31:45.728Z,10.32
2019-05-13T20:34:12.662Z,10.40
2019-05-13T20:36:42.047Z,10.39
2019-05-13T20:39:08.590Z,10.43
2019-05-13T20:41:35.459Z,10.32
2019-05-13T20:44:03.345Z,10.33
2019-05-13T20:46:32.530Z,10.34
2019-05-13T20:48:58.972Z,10.16
2019-05-13T20:51:25.884Z,10.15
2019-05-13T20:53:52.670Z,10.19
2019-05-13T20:56:21.448Z,10.27
2019-05-13T20:58:48.702Z,10.07
2019-05-13T21:01:15.582Z,10.14
2019-05-13T21:03:42.809Z,10.08
2019-05-13T21:06:11.706Z,10.00
2019-05-13T21:08:41.353Z,10.04
2019-05-13T21:11:07.419Z,10.03
2019-05-13T21:13:34.370Z,10.00
2019-05-13T21:16:02.359Z,10.07
2019-05-13T21:18:31.620Z,10.12
2019-05-13T21:20:58.310Z,10.14
2019-05-13T21:23:25.461Z,10.11
2019-05-13T21:25:55.338Z,10.12
2019-05-13T21:28:22.603Z,10.11
2019-05-13T21:30:51.376Z,10.03
2019-05-13T21:33:21.940Z,9.92
2019-05-13T21:35:50.960Z,10.00
2019-05-13T21:38:17.329Z,9.93
2019-05-13T21:40:44.357Z,9.95
2019-05-13T21:43:11.857Z,9.97
2019-05-13T21:45:38.995Z,10.00
2019-05-13T21:48:06.762Z,9.99
2019-05-13T21:50:37.210Z,9.81
2019-05-13T21:53:02.598Z,9.89
2019-05-13T21:55:29.567Z,9.81
2019-05-13T21:57:56.501Z,9.79
2019-05-13T22:00:25.519Z,9.75
2019-05-13T22:02:54.273Z,9.73
2019-05-13T22:05:22.225Z,9.56
2019-05-13T22:07:49.013Z,9.68
2019-05-13T22:10:15.782Z,9.40
2019-05-13T22:12:42.877Z,9.57
2019-05-13T22:15:09.870Z,9.62
2019-05-13T22:17:37.078Z,9.54
2019-05-13T22:20:04.763Z,9.54
2019-05-13T22:22:32.160Z,9.34
2019-05-13T22:25:01.787Z,9.46
2019-05-13T22:27:29.937Z,9.43
2019-05-13T22:29:56.944Z,9.52
2019-05-13T22:32:24.092Z,9.49
2019-05-13T22:34:51.188Z,9.45
2019-05-13T22:37:18.521Z,9.47
2019-05-13T22:39:46.181Z,9.36
2019-05-13T22:42:13.534Z,9.33
2019-05-13T22:44:41.707Z,9.16
2019-05-13T22:47:13.022Z,9.10
2019-05-13T22:49:39.782Z,9.15
2019-05-13T22:52:06.595Z,9.12
2019-05-13T22:54:33.503Z,9.13
2019-05-13T22:57:00.492Z,9.16
2019-05-13T22:59:27.036Z,9.21
2019-05-13T23:01:53.876Z,9.25
2019-05-13T23:04:20.581Z,9.24
2019-05-13T23:06:47.556Z,9.24
2019-05-13T23:09:14.645Z,9.27
2019-05-13T23:11:41.848Z,8.88
2019-05-13T23:14:10.836Z,8.96
2019-05-13T23:16:37.621Z,9.00
2019-05-13T23:19:04.569Z,9.02
2019-05-13T23:21:31.391Z,8.99
2019-05-13T23:23:58.239Z,8.66
2019-05-13T23:26:25.298Z,8.83
2019-05-13T23:28:52.327Z,8.86
2019-05-13T23:31:19.100Z,8.68
2019-05-13T23:33:46.052Z,8.62
2019-05-13T23:36:13.504Z,8.59
2019-05-13T23:38:41.346Z,8.50
2019-05-13T23:41:08.440Z,8.49
2019-05-13T23:43:35.320Z,8.57
2019-05-13T23:46:01.823Z,8.53
2019-05-13T23:48:28.581Z,8.49
2019-05-13T23:50:55.555Z,8.57
2019-05-13T23:53:22.326Z,8.55
2019-05-13T23:55:49.139Z,8.68
2019-05-13T23:58:15.872Z,8.70
